createdAt,value
2023-04-23T00:04:38.886Z,57.40
2023-04-23T00:10:09.519Z,57.60
2023-04-23T00:15:38.413Z,58.40
2023-04-23T00:21:06.566Z,57.90
2023-04-23T00:26:34.614Z,58.00
2023-04-23T00:32:03.536Z,58.10
2023-04-23T00:37:31.609Z,58.20
2023-04-23T00:43:00.624Z,58.20
2023-04-23T00:48:29.788Z,58.30
2023-04-23T00:53:58.201Z,58.40
2023-04-23T00:59:27.358Z,58.50
2023-04-23T01:04:56.398Z,58.70
2023-04-23T01:10:24.886Z,59.00
2023-04-23T01:15:53.028Z,59.10
2023-04-23T01:21:21.158Z,59.20
2023-04-23T01:26:49.209Z,59.30
2023-04-23T01:32:18.453Z,59.50
2023-04-23T01:37:48.536Z,59.60
2023-04-23T01:43:17.433Z,59.60
2023-04-23T01:48:45.444Z,59.80
2023-04-23T01:54:13.220Z,60.00
2023-04-23T01:59:42.633Z,60.10
2023-04-23T02:05:18.826Z,60.30
2023-04-23T02:10:46.793Z,60.40
2023-04-23T02:16:14.740Z,60.70
2023-04-23T02:21:42.984Z,60.80
2023-04-23T02:27:11.472Z,60.80
2023-04-23T02:43:37.009Z,61.00
2023-04-23T02:49:06.941Z,62.00
2023-04-23T02:54:37.265Z,62.30
2023-04-23T03:00:07.439Z,62.40
2023-04-23T03:05:41.167Z,61.90
2023-04-23T03:11:09.068Z,62.80
2023-04-23T03:16:36.954Z,63.10
2023-04-23T03:22:06.154Z,63.30
2023-04-23T03:27:34.011Z,63.70
2023-04-23T03:33:02.818Z,63.30
2023-04-23T03:38:30.909Z,64.10
2023-04-23T03:44:00.327Z,64.30
2023-04-23T03:49:40.474Z,64.40
2023-04-23T03:55:10.279Z,64.50
2023-04-23T04:00:43.944Z,64.30
2023-04-23T04:06:11.843Z,65.00
2023-04-23T04:11:41.763Z,65.20
2023-04-23T04:17:12.569Z,65.30
2023-04-23T04:22:40.652Z,65.40
2023-04-23T04:28:09.508Z,65.40
2023-04-23T04:39:07.913Z,65.10
2023-04-23T04:44:37.624Z,65.90
2023-04-23T04:50:06.804Z,66.20
2023-04-23T04:55:35.682Z,66.90
2023-04-23T05:01:05.939Z,67.10
2023-04-23T05:06:35.829Z,67.50
2023-04-23T05:12:28.958Z,67.60
2023-04-23T05:17:56.854Z,67.30
2023-04-23T05:23:24.823Z,68.10
2023-04-23T05:28:55.604Z,68.50
2023-04-23T05:34:23.498Z,68.80
2023-04-23T05:39:51.360Z,69.50
2023-04-23T05:50:49.419Z,69.20
2023-04-23T05:56:17.370Z,69.80
2023-04-23T06:01:47.680Z,70.80
2023-04-23T06:07:15.560Z,70.90
2023-04-23T06:12:44.458Z,71.00
2023-04-23T06:18:12.419Z,71.00
2023-04-23T06:23:40.333Z,71.30
2023-04-23T06:29:08.082Z,71.70
2023-04-23T06:34:46.711Z,72.00
2023-04-23T06:40:17.911Z,72.10
2023-04-23T06:45:45.886Z,72.40
2023-04-23T06:51:13.720Z,72.50
2023-04-23T06:56:41.604Z,72.90
2023-04-23T07:02:10.830Z,73.10
2023-04-23T07:07:40.788Z,72.70
2023-04-23T07:13:08.647Z,73.60
2023-04-23T07:18:37.668Z,73.80
2023-04-23T07:24:07.529Z,73.80
2023-04-23T07:29:36.139Z,74.10
2023-04-23T07:35:06.006Z,74.20
2023-04-23T07:40:40.127Z,74.40
2023-04-23T07:46:08.780Z,74.90
2023-04-23T07:51:39.817Z,75.00
2023-04-23T07:57:08.778Z,75.20
2023-04-23T08:02:36.923Z,74.60
2023-04-23T08:08:04.889Z,75.30
2023-04-23T08:13:34.436Z,75.70
2023-04-23T08:19:05.922Z,75.80
2023-04-23T08:24:35.616Z,76.50
2023-04-23T08:30:04.340Z,76.00
2023-04-23T08:35:32.327Z,75.20
2023-04-23T08:41:06.029Z,76.10
2023-04-23T08:46:41.222Z,76.20
2023-04-23T08:52:24.129Z,76.70
2023-04-23T08:57:52.224Z,76.20
2023-04-23T09:03:20.971Z,76.40
2023-04-23T09:08:53.482Z,76.30
2023-04-23T09:14:26.532Z,76.00
2023-04-23T09:19:55.243Z,76.50
2023-04-23T09:25:25.201Z,76.70
2023-04-23T09:30:53.864Z,76.50
2023-04-23T09:36:23.824Z,76.80
2023-04-23T09:41:54.911Z,76.40
2023-04-23T09:47:24.545Z,76.50
2023-04-23T09:52:57.298Z,76.50
2023-04-23T10:03:57.493Z,76.10
2023-04-23T10:09:28.313Z,76.90
2023-04-23T10:14:57.510Z,76.80
2023-04-23T10:20:26.444Z,76.50
2023-04-23T10:25:56.489Z,76.90
2023-04-23T10:31:25.432Z,76.60
2023-04-23T10:36:54.646Z,76.70
2023-04-23T10:42:25.963Z,76.50
2023-04-23T10:47:57.658Z,76.30
2023-04-23T10:53:26.337Z,76.30
2023-04-23T10:58:55.232Z,76.20
2023-04-23T11:04:27.849Z,75.80
2023-04-23T11:10:00.499Z,75.70
2023-04-23T11:15:31.504Z,75.80
2023-04-23T11:20:59.465Z,75.70
2023-04-23T11:26:31.617Z,75.70
2023-04-23T11:32:03.236Z,75.40
2023-04-23T11:37:31.636Z,75.50
2023-04-23T11:42:59.616Z,75.10
2023-04-23T11:48:27.585Z,74.80
2023-04-23T11:53:55.633Z,74.40
2023-04-23T11:59:24.667Z,74.30
2023-04-23T12:10:23.346Z,73.20
2023-04-23T12:16:00.461Z,73.60
2023-04-23T12:21:30.673Z,73.40
2023-04-23T12:27:03.005Z,73.10
2023-04-23T12:32:33.803Z,72.50
2023-04-23T12:38:01.542Z,72.30
2023-04-23T12:43:29.502Z,72.50
2023-04-23T12:48:57.357Z,71.90
2023-04-23T12:54:27.530Z,71.50
2023-04-23T12:59:55.850Z,71.60
2023-04-23T13:05:24.065Z,71.50
2023-04-23T13:10:51.945Z,71.20
2023-04-23T13:16:20.026Z,71.00
2023-04-23T13:21:49.082Z,70.90
2023-04-23T13:27:16.874Z,70.60
2023-04-23T13:32:44.783Z,70.20
2023-04-23T13:38:12.979Z,69.30
2023-04-23T13:43:40.921Z,69.40
2023-04-23T13:49:08.719Z,69.20
2023-04-23T13:54:38.719Z,69.00
2023-04-23T14:00:08.537Z,68.90
2023-04-23T14:05:39.009Z,68.10
2023-04-23T14:11:13.816Z,69.60
2023-04-23T14:17:07.768Z,68.70
2023-04-23T14:22:37.906Z,68.50
2023-04-23T14:28:34.658Z,68.30
2023-04-23T14:34:02.617Z,68.30
2023-04-23T14:39:30.702Z,68.60
2023-04-23T14:45:05.774Z,68.80
2023-04-23T14:50:34.028Z,69.70
2023-04-23T14:56:01.846Z,68.30
2023-04-23T15:01:41.792Z,68.10
2023-04-23T15:07:10.185Z,67.60
2023-04-23T15:13:09.626Z,67.80
2023-04-23T15:18:39.486Z,68.10
2023-04-23T15:24:09.688Z,68.40
2023-04-23T15:29:37.879Z,68.40
2023-04-23T15:35:06.321Z,68.80
2023-04-23T15:40:42.108Z,69.10
2023-04-23T15:46:10.088Z,69.30
2023-04-23T15:51:38.657Z,69.50
2023-04-23T15:57:06.975Z,69.60
2023-04-23T16:02:35.152Z,69.60
2023-04-23T16:08:03.858Z,70.00
2023-04-23T16:13:31.758Z,70.00
2023-04-23T16:19:01.209Z,70.10
2023-04-23T16:24:31.631Z,70.30
2023-04-23T16:29:59.712Z,73.30
2023-04-23T16:35:29.054Z,70.60
2023-04-23T16:40:56.936Z,70.40
2023-04-23T16:46:30.083Z,70.10
2023-04-23T16:52:03.000Z,69.90
2023-04-23T16:57:36.465Z,69.90
2023-04-23T17:03:04.806Z,70.60
2023-04-23T17:08:32.749Z,70.10
2023-04-23T17:14:01.604Z,70.20
2023-04-23T17:19:42.312Z,70.50
2023-04-23T17:25:10.423Z,71.00
2023-04-23T17:30:40.547Z,71.70
2023-04-23T17:36:09.981Z,71.00
2023-04-23T17:41:38.273Z,71.10
2023-04-23T17:47:06.223Z,71.20
2023-04-23T17:52:36.097Z,71.40
2023-04-23T17:58:07.746Z,71.70
2023-04-23T18:03:36.037Z,71.80
2023-04-23T18:09:04.110Z,72.00
2023-04-23T18:14:31.996Z,72.30
2023-04-23T18:19:59.805Z,72.50
2023-04-23T18:25:28.442Z,72.80
2023-04-23T18:31:02.291Z,73.00
2023-04-23T18:36:34.082Z,73.40
2023-04-23T18:42:01.929Z,73.50
2023-04-23T18:47:41.270Z,73.70
2023-04-23T18:53:11.381Z,74.00
2023-04-23T18:58:42.157Z,74.50
2023-04-23T19:04:10.435Z,75.10
2023-04-23T19:09:38.464Z,75.70
2023-04-23T19:15:07.073Z,75.00
2023-04-23T19:20:35.042Z,73.40
2023-04-23T19:26:04.032Z,73.30
2023-04-23T19:31:32.078Z,73.10
2023-04-23T19:37:00.941Z,73.10
2023-04-23T19:42:30.406Z,73.00
2023-04-23T19:47:59.010Z,73.20
2023-04-23T19:53:27.682Z,73.20
2023-04-23T19:58:56.389Z,73.50
2023-04-23T20:04:24.335Z,73.80
2023-04-23T20:09:52.870Z,74.50
2023-04-23T20:15:24.387Z,74.90
2023-04-23T20:20:53.145Z,75.20
2023-04-23T20:26:21.285Z,75.50
2023-04-23T20:31:51.372Z,75.70
2023-04-23T20:37:21.705Z,76.40
2023-04-23T20:42:51.775Z,76.40
2023-04-23T20:48:20.194Z,77.00
2023-04-23T20:53:48.336Z,77.50
2023-04-23T20:59:16.806Z,77.90
2023-04-23T21:04:44.878Z,78.00
2023-04-23T21:10:13.143Z,78.20
2023-04-23T21:15:41.322Z,78.60
2023-04-23T21:21:09.575Z,78.50
2023-04-23T21:26:37.854Z,78.90
2023-04-23T21:32:06.051Z,79.10
2023-04-23T21:37:34.132Z,79.30
2023-04-23T21:43:02.725Z,79.80
2023-04-23T21:48:32.149Z,79.90
2023-04-23T21:59:28.352Z,79.80
2023-04-23T22:04:58.765Z,80.90
2023-04-23T22:10:26.781Z,80.00
2023-04-23T22:21:25.751Z,80.60
2023-04-23T22:26:54.155Z,81.40
2023-04-23T22:32:22.322Z,81.80
2023-04-23T22:37:50.343Z,82.00
2023-04-23T22:43:18.218Z,82.30
2023-04-23T22:48:47.815Z,82.60
2023-04-23T22:54:17.134Z,82.70
2023-04-23T22:59:45.283Z,83.00
2023-04-23T23:05:13.432Z,83.20
2023-04-23T23:10:41.669Z,83.60
2023-04-23T23:16:09.827Z,83.80
2023-04-23T23:21:37.821Z,83.70
2023-04-23T23:27:06.046Z,83.90
2023-04-23T23:32:34.319Z,83.70
2023-04-23T23:38:02.381Z,83.90
2023-04-23T23:43:30.547Z,84.00
2023-04-23T23:48:58.392Z,84.20
2023-04-23T23:54:26.376Z,84.20
2023-04-23T23:59:56.022Z,84.30
